Time,TemperatureF,DewpointF,PressureIn,WindDirection,WindDirectionDegrees,WindSpeedMPH,WindSpeedGustMPH,Humidity,HourlyPrecipIn,Conditions,Clouds,dailyrainin,SoftwareType,DateUTC
2013-03-15 00:04:00,39.7,10.9,30.00,East,101,5.0,8.3,30,0.00,,,-99.99,FreeWX 2.04,2013-03-15 06:04:00,
2013-03-15 00:14:00,39.4,10.6,30.00,East,99,4.0,6.9,30,0.00,,,-99.99,FreeWX 2.04,2013-03-15 06:14:00,
2013-03-15 00:24:00,39.2,11.1,30.00,ESE,103,4.0,6.9,31,0.00,,,-99.99,FreeWX 2.04,2013-03-15 06:24:00,
2013-03-15 00:34:00,38.8,11.5,30.00,ESE,103,5.0,7.8,32,0.00,,,-99.99,FreeWX 2.04,2013-03-15 06:34:00,
2013-03-15 00:44:00,39.0,11.7,30.00,ESE,104,5.0,9.2,32,0.00,,,-99.99,FreeWX 2.04,2013-03-15 06:44:00,
2013-03-15 00:54:00,39.2,11.8,30.00,East,99,5.0,9.2,32,0.00,,,-99.99,FreeWX 2.04,2013-03-15 06:54:00,
2013-03-15 01:04:00,38.7,12.0,30.00,East,90,5.0,10.1,33,0.00,,,-99.99,FreeWX 2.04,2013-03-15 07:04:00,
2013-03-15 01:14:00,39.2,11.8,30.00,East,101,5.0,7.4,32,0.00,,,-99.99,FreeWX 2.04,2013-03-15 07:14:00,
2013-03-15 01:24:00,39.2,12.6,30.00,ESE,120,6.0,9.6,33,0.00,,,-99.99,FreeWX 2.04,2013-03-15 07:24:00,
2013-03-15 01:34:00,39.4,12.0,30.00,ESE,116,6.0,9.2,32,0.00,,,-99.99,FreeWX 2.04,2013-03-15 07:34:00,
2013-03-15 01:44:00,38.8,12.2,30.00,ESE,103,6.0,9.2,33,0.00,,,-99.99,FreeWX 2.04,2013-03-15 07:44:00,
2013-03-15 01:54:00,39.4,12.7,30.00,East,97,6.0,9.2,33,0.00,,,-99.99,FreeWX 2.04,2013-03-15 07:54:00,
2013-03-15 02:04:00,39.0,12.4,30.00,ESE,117,5.0,10.5,33,0.00,,,-99.99,FreeWX 2.04,2013-03-15 08:04:00,
2013-03-15 02:14:00,39.7,13.1,30.00,ESE,102,5.0,7.8,33,0.00,,,-99.99,FreeWX 2.04,2013-03-15 08:14:00,
2013-03-15 02:24:00,40.3,12.7,29.97,ESE,105,6.0,10.5,32,0.00,,,-99.99,FreeWX 2.04,2013-03-15 08:24:00,
2013-03-15 02:34:00,40.5,12.2,29.97,ESE,104,6.0,9.2,31,0.00,,,-99.99,FreeWX 2.04,2013-03-15 08:34:00,
2013-03-15 02:44:00,40.6,12.4,29.97,ESE,118,6.0,10.5,31,0.00,,,-99.99,FreeWX 2.04,2013-03-15 08:44:00,
2013-03-15 02:54:00,41.2,12.2,29.97,ESE,107,6.0,8.7,30,0.00,,,-99.99,FreeWX 2.04,2013-03-15 08:54:00,
2013-03-15 03:04:00,40.5,12.2,29.97,ESE,102,6.0,10.1,31,0.00,,,-99.99,FreeWX 2.04,2013-03-15 09:04:00,
2013-03-15 03:14:00,40.5,12.2,29.97,ESE,105,6.0,10.5,31,0.00,,,-99.99,FreeWX 2.04,2013-03-15 09:14:00,
2013-03-15 03:24:00,40.8,11.8,29.97,ESE,123,6.0,10.1,30,0.00,,,-99.99,FreeWX 2.04,2013-03-15 09:24:00,
2013-03-15 03:34:00,41.0,12.0,29.97,SE,125,7.0,10.1,30,0.00,,,-99.99,FreeWX 2.04,2013-03-15 09:34:00,
2013-03-15 03:44:00,41.2,11.3,29.97,ESE,118,6.0,10.1,29,0.00,,,-99.99,FreeWX 2.04,2013-03-15 09:44:00,
2013-03-15 03:54:00,40.1,11.1,29.97,ESE,112,5.0,7.8,30,0.00,,,-99.99,FreeWX 2.04,2013-03-15 09:54:00,
2013-03-15 04:04:00,39.7,11.7,29.97,ESE,115,6.0,11.2,31,0.00,,,-99.99,FreeWX 2.04,2013-03-15 10:04:00,
2013-03-15 04:14:00,39.4,12.0,29.97,ESE,105,6.0,8.7,32,0.00,,,-99.99,FreeWX 2.04,2013-03-15 10:14:00,
2013-03-15 04:25:00,39.2,11.8,29.97,ESE,116,5.0,8.7,32,0.00,,,-99.99,FreeWX 2.04,2013-03-15 10:25:00,
2013-03-15 04:35:00,39.7,11.7,29.97,ESE,116,6.0,9.2,31,0.00,,,-99.99,FreeWX 2.04,2013-03-15 10:35:00,
2013-03-15 04:45:00,39.2,11.8,29.97,ESE,121,6.0,9.6,32,0.00,,,-99.99,FreeWX 2.04,2013-03-15 10:45:00,
2013-03-15 04:55:00,38.8,11.5,29.97,ESE,108,6.0,10.1,32,0.00,,,-99.99,FreeWX 2.04,2013-03-15 10:55:00,
2013-03-15 05:05:00,38.7,12.0,29.97,ESE,114,6.0,10.1,33,0.00,,,-99.99,FreeWX 2.04,2013-03-15 11:05:00,
2013-03-15 05:15:00,38.8,11.5,29.97,ESE,104,6.0,9.2,32,0.00,,,-99.99,FreeWX 2.04,2013-03-15 11:15:00,
2013-03-15 05:25:00,38.5,11.8,29.97,ESE,112,5.0,8.7,33,0.00,,,-99.99,FreeWX 2.04,2013-03-15 11:25:00,
2013-03-15 05:35:00,38.7,12.0,29.97,ESE,107,6.0,9.6,33,0.00,,,-99.99,FreeWX 2.04,2013-03-15 11:35:00,
2013-03-15 05:45:00,38.5,11.8,29.97,East,99,5.0,8.7,33,0.00,,,-99.99,FreeWX 2.04,2013-03-15 11:45:00,
2013-03-15 05:55:00,39.2,11.1,29.97,ESE,108,6.0,9.6,31,0.00,,,-99.99,FreeWX 2.04,2013-03-15 11:55:00,
2013-03-15 06:05:00,38.7,11.3,29.97,ESE,114,5.0,9.2,32,0.00,,,-99.99,FreeWX 2.04,2013-03-15 12:05:00,
2013-03-15 06:15:00,38.7,12.0,29.97,ESE,107,6.0,9.6,33,0.00,,,-99.99,FreeWX 2.04,2013-03-15 12:15:00,
2013-03-15 06:25:00,39.6,11.5,29.97,ESE,112,5.0,7.8,31,0.00,,,-99.99,FreeWX 2.04,2013-03-15 12:25:00,
2013-03-15 06:35:00,39.2,11.1,29.97,ESE,112,5.0,7.4,31,0.00,,,-99.99,FreeWX 2.04,2013-03-15 12:35:00,
2013-03-15 06:45:00,39.2,11.8,29.97,ESE,103,6.0,9.6,32,0.00,,,-99.99,FreeWX 2.04,2013-03-15 12:45:00,
2013-03-15 06:55:00,39.2,11.1,29.97,East,99,5.0,7.8,31,0.00,,,-99.99,FreeWX 2.04,2013-03-15 12:55:00,
2013-03-15 07:05:00,39.4,11.3,29.97,ESE,109,6.0,10.1,31,0.00,,,-99.99,FreeWX 2.04,2013-03-15 13:05:00,
2013-03-15 07:15:00,39.7,11.7,29.97,ESE,116,6.0,9.2,31,0.00,,,-99.99,FreeWX 2.04,2013-03-15 13:15:00,
2013-03-15 07:25:00,39.4,11.3,29.97,ESE,111,4.0,7.8,31,0.00,,,-99.99,FreeWX 2.04,2013-03-15 13:25:00,
2013-03-15 07:35:00,39.7,11.7,29.97,ESE,121,4.0,7.8,31,0.00,,,-99.99,FreeWX 2.04,2013-03-15 13:35:00,
2013-03-15 07:45:00,39.9,11.8,29.97,ESE,108,5.0,8.3,31,0.00,,,-99.99,FreeWX 2.04,2013-03-15 13:45:00,
2013-03-15 07:55:00,40.1,11.1,29.97,ESE,110,5.0,8.3,30,0.00,,,-99.99,FreeWX 2.04,2013-03-15 13:55:00,
2013-03-15 08:05:00,39.9,11.8,29.97,ESE,114,5.0,8.3,31,0.00,,,-99.99,FreeWX 2.04,2013-03-15 14:05:00,
2013-03-15 08:15:00,40.3,11.3,29.97,ESE,104,5.0,8.7,30,0.00,,,-99.99,FreeWX 2.04,2013-03-15 14:15:00,
2013-03-15 08:25:00,40.5,11.5,29.97,ESE,103,3.0,7.4,30,0.00,,,-99.99,FreeWX 2.04,2013-03-15 14:25:00,
2013-03-15 08:35:00,41.7,11.8,29.97,East,97,3.0,6.9,29,0.00,,,-99.99,FreeWX 2.04,2013-03-15 14:35:00,
2013-03-15 08:45:00,42.1,11.3,29.97,ESE,116,4.0,7.8,28,0.00,,,-99.99,FreeWX 2.04,2013-03-15 14:45:00,
2013-03-15 08:55:00,41.9,11.1,29.97,East,89,3.0,4.9,28,0.00,,,-99.99,FreeWX 2.04,2013-03-15 14:55:00,
2013-03-15 09:05:00,42.4,11.7,29.97,ESE,116,4.0,7.8,28,0.00,,,-99.99,FreeWX 2.04,2013-03-15 15:05:00,
2013-03-15 09:15:00,42.6,11.8,29.97,ESE,111,4.0,12.1,28,0.00,,,-99.99,FreeWX 2.04,2013-03-15 15:15:00,
2013-03-15 09:25:00,42.4,11.7,29.97,ESE,111,3.0,6.9,28,0.00,,,-99.99,FreeWX 2.04,2013-03-15 15:25:00,
2013-03-15 09:35:00,44.2,7.9,29.97,ESE,117,3.0,6.3,22,0.00,,,-99.99,FreeWX 2.04,2013-03-15 15:35:00,
2013-03-15 09:45:00,43.2,9.7,29.97,East,96,5.0,9.6,25,0.00,,,-99.99,FreeWX 2.04,2013-03-15 15:45:00,
2013-03-15 09:55:00,43.5,10.0,29.97,ESE,114,2.0,6.3,25,0.00,,,-99.99,FreeWX 2.04,2013-03-15 15:55:00,
2013-03-15 10:05:00,44.1,10.6,29.97,ESE,111,2.0,5.8,25,0.00,,,-99.99,FreeWX 2.04,2013-03-15 16:05:00,
2013-03-15 10:15:00,45.5,9.0,29.97,ESE,115,2.0,6.3,22,0.00,,,-99.99,FreeWX 2.04,2013-03-15 16:15:00,
2013-03-15 10:25:00,46.4,3.9,29.97,East,87,1.0,5.8,17,0.00,,,-99.99,FreeWX 2.04,2013-03-15 16:25:00,
2013-03-15 10:35:00,47.5,3.6,29.97,North,-999,0.0,5.8,16,0.00,,,-99.99,FreeWX 2.04,2013-03-15 16:35:00,
2013-03-15 10:45:00,47.8,3.9,29.97,SSW,212,2.0,6.7,16,0.00,,,-99.99,FreeWX 2.04,2013-03-15 16:45:00,
2013-03-15 10:55:00,47.7,3.7,29.97,SSW,203,2.0,7.8,16,0.00,,,-99.99,FreeWX 2.04,2013-03-15 16:55:00,
2013-03-15 11:05:00,48.4,4.3,29.97,SSE,166,3.0,7.8,16,0.00,,,-99.99,FreeWX 2.04,2013-03-15 17:05:00,
2013-03-15 11:15:00,48.2,4.1,29.97,North,-999,0.0,5.4,16,0.00,,,-99.99,FreeWX 2.04,2013-03-15 17:15:00,
2013-03-15 11:25:00,48.4,4.3,29.97,SSE,158,3.0,6.9,16,0.00,,,-99.99,FreeWX 2.04,2013-03-15 17:25:00,
2013-03-15 11:35:00,48.6,4.5,29.97,North,-999,0.0,5.4,16,0.00,,,-99.99,FreeWX 2.04,2013-03-15 17:35:00,
2013-03-15 11:45:00,49.8,5.5,29.97,North,-999,0.0,0.0,16,0.00,,,-99.99,FreeWX 2.04,2013-03-15 17:45:00,
2013-03-15 11:55:00,49.6,5.4,29.97,North,-999,0.0,4.5,16,0.00,,,-99.99,FreeWX 2.04,2013-03-15 17:55:00,
2013-03-15 12:05:00,50.0,5.5,29.97,North,-999,0.0,0.0,16,0.00,,,-99.99,FreeWX 2.04,2013-03-15 18:05:00,
2013-03-15 12:15:00,50.9,1.8,29.97,North,-999,0.0,0.0,13,0.00,,,-99.99,FreeWX 2.04,2013-03-15 18:15:00,
2013-03-15 12:25:00,49.5,2.3,29.97,East,86,1.0,5.8,14,0.00,,,-99.99,FreeWX 2.04,2013-03-15 18:25:00,
2013-03-15 12:35:00,47.5,3.6,29.97,NNE,15,4.0,6.7,16,0.00,,,-99.99,FreeWX 2.04,2013-03-15 18:35:00,
2013-03-15 12:45:00,47.3,4.6,29.97,North,8,2.0,7.4,17,0.00,,,-99.99,FreeWX 2.04,2013-03-15 18:45:00,
2013-03-15 12:55:00,46.6,4.1,29.97,NNW,340,5.0,7.8,17,0.00,,,-99.99,FreeWX 2.04,2013-03-15 18:55:00,
2013-03-15 13:05:00,47.1,4.6,29.97,NW,311,2.0,5.8,17,0.00,,,-99.99,FreeWX 2.04,2013-03-15 19:05:00,
2013-03-15 13:15:00,48.9,4.8,29.97,North,5,2.0,6.3,16,0.00,,,-99.99,FreeWX 2.04,2013-03-15 19:15:00,
2013-03-15 13:25:00,48.4,4.3,29.97,North,358,4.0,6.3,16,0.00,,,-99.99,FreeWX 2.04,2013-03-15 19:25:00,
2013-03-15 13:35:00,48.9,4.8,29.94,NNE,17,4.0,7.8,16,0.00,,,-99.99,FreeWX 2.04,2013-03-15 19:35:00,
2013-03-15 13:45:00,48.2,4.1,29.94,North,355,4.0,9.2,16,0.00,,,-99.99,FreeWX 2.04,2013-03-15 19:45:00,
2013-03-15 13:55:00,50.0,2.7,29.94,NNW,344,5.0,8.7,14,0.00,,,-99.99,FreeWX 2.04,2013-03-15 19:55:00,
2013-03-15 14:05:00,47.5,3.6,29.94,NNW,340,5.0,10.1,16,0.00,,,-99.99,FreeWX 2.04,2013-03-15 20:05:00,
2013-03-15 14:15:00,47.5,3.6,29.94,North,354,6.0,7.8,16,0.00,,,-99.99,FreeWX 2.04,2013-03-15 20:15:00,
2013-03-15 14:25:00,49.1,4.8,29.94,North,8,5.0,7.8,16,0.00,,,-99.99,FreeWX 2.04,2013-03-15 20:25:00,
2013-03-15 14:35:00,48.6,4.5,29.94,North,354,5.0,7.8,16,0.00,,,-99.99,FreeWX 2.04,2013-03-15 20:35:00,
2013-03-15 14:45:00,50.4,3.0,29.94,North,1,5.0,9.6,14,0.00,,,-99.99,FreeWX 2.04,2013-03-15 20:45:00,
2013-03-15 14:55:00,51.8,2.5,29.94,North,358,1.0,5.4,13,0.00,,,-99.99,FreeWX 2.04,2013-03-15 20:55:00,
2013-03-15 15:05:00,50.2,5.7,29.94,North,3,1.0,5.8,16,0.00,,,-99.99,FreeWX 2.04,2013-03-15 21:05:00,
2013-03-15 15:15:00,48.6,4.5,29.94,WNW,297,3.0,7.4,16,0.00,,,-99.99,FreeWX 2.04,2013-03-15 21:15:00,
2013-03-15 15:25:00,49.3,5.0,29.91,WNW,299,4.0,7.8,16,0.00,,,-99.99,FreeWX 2.04,2013-03-15 21:25:00,
2013-03-15 15:35:00,48.6,4.5,29.91,WNW,287,5.0,9.2,16,0.00,,,-99.99,FreeWX 2.04,2013-03-15 21:35:00,
2013-03-15 15:46:00,48.7,4.6,29.91,NNW,331,6.0,8.3,16,0.00,,,-99.99,FreeWX 2.04,2013-03-15 21:46:00,
2013-03-15 15:56:00,48.0,3.9,29.91,NW,325,3.0,6.7,16,0.00,,,-99.99,FreeWX 2.04,2013-03-15 21:56:00,
2013-03-15 16:06:00,47.8,3.9,29.91,NNW,346,2.0,5.8,16,0.00,,,-99.99,FreeWX 2.04,2013-03-15 22:06:00,
2013-03-15 16:16:00,47.7,3.7,29.91,NNE,22,2.0,5.8,16,0.00,,,-99.99,FreeWX 2.04,2013-03-15 22:16:00,
2013-03-15 16:26:00,47.5,3.6,29.91,North,10,4.0,6.7,16,0.00,,,-99.99,FreeWX 2.04,2013-03-15 22:26:00,
2013-03-15 16:36:00,47.1,4.6,29.91,North,355,2.0,4.5,17,0.00,,,-99.99,FreeWX 2.04,2013-03-15 22:36:00,
2013-03-15 16:46:00,46.8,4.3,29.91,North,356,3.0,5.8,17,0.00,,,-99.99,FreeWX 2.04,2013-03-15 22:46:00,
2013-03-15 16:56:00,46.6,4.1,29.91,North,351,3.0,6.3,17,0.00,,,-99.99,FreeWX 2.04,2013-03-15 22:56:00,
2013-03-15 17:06:00,46.9,4.5,29.91,NW,326,3.0,5.4,17,0.00,,,-99.99,FreeWX 2.04,2013-03-15 23:06:00,
2013-03-15 17:16:00,47.5,3.6,29.91,North,-999,0.0,4.5,16,0.00,,,-99.99,FreeWX 2.04,2013-03-15 23:16:00,
2013-03-15 17:26:00,48.4,4.3,29.91,North,-999,0.0,2.7,16,0.00,,,-99.99,FreeWX 2.04,2013-03-15 23:26:00,
2013-03-15 17:36:00,47.1,4.6,29.91,WNW,283,2.0,5.8,17,0.00,,,-99.99,FreeWX 2.04,2013-03-15 23:36:00,
2013-03-15 17:46:00,47.1,4.6,29.91,West,274,4.0,12.1,17,0.00,,,-99.99,FreeWX 2.04,2013-03-15 23:46:00,
2013-03-15 17:56:00,45.1,3.0,29.91,NW,316,3.0,5.8,17,0.00,,,-99.99,FreeWX 2.04,2013-03-15 23:56:00,
2013-03-15 18:06:00,43.7,5.4,29.91,NNW,342,1.0,4.5,20,0.00,,,-99.99,FreeWX 2.04,2013-03-16 00:06:00,
2013-03-15 18:16:00,42.6,9.3,29.91,North,349,2.0,5.4,25,0.00,,,-99.99,FreeWX 2.04,2013-03-16 00:16:00,
2013-03-15 18:26:00,44.2,7.9,29.91,North,358,3.0,6.3,22,0.00,,,-99.99,FreeWX 2.04,2013-03-16 00:26:00,
2013-03-15 18:36:00,45.1,8.6,29.91,North,356,1.0,4.5,22,0.00,,,-99.99,FreeWX 2.04,2013-03-16 00:36:00,
2013-03-15 18:46:00,44.6,8.1,29.91,NNE,16,1.0,5.4,22,0.00,,,-99.99,FreeWX 2.04,2013-03-16 00:46:00,
2013-03-15 18:56:00,43.9,7.5,29.91,East,101,2.0,4.5,22,0.00,,,-99.99,FreeWX 2.04,2013-03-16 00:56:00,
2013-03-15 19:06:00,43.3,9.9,29.91,ESE,117,2.0,6.9,25,0.00,,,-99.99,FreeWX 2.04,2013-03-16 01:06:00,
2013-03-15 19:16:00,43.5,10.0,29.91,ESE,108,2.0,4.0,25,0.00,,,-99.99,FreeWX 2.04,2013-03-16 01:16:00,
2013-03-15 19:26:00,42.6,9.3,29.91,ESE,122,2.0,6.7,25,0.00,,,-99.99,FreeWX 2.04,2013-03-16 01:26:00,
2013-03-15 19:36:00,41.7,11.1,29.91,North,-999,0.0,6.3,28,0.00,,,-99.99,FreeWX 2.04,2013-03-16 01:36:00,
2013-03-15 19:46:00,41.2,11.3,29.91,SE,131,2.0,6.3,29,0.00,,,-99.99,FreeWX 2.04,2013-03-16 01:46:00,
2013-03-15 19:56:00,40.6,10.9,29.91,ESE,114,2.0,4.9,29,0.00,,,-99.99,FreeWX 2.04,2013-03-16 01:56:00,
2013-03-15 20:06:00,40.5,10.8,29.91,North,-999,0.0,5.8,29,0.00,,,-99.99,FreeWX 2.04,2013-03-16 02:06:00,
2013-03-15 20:17:00,40.3,10.6,29.91,ESE,102,3.0,5.4,29,0.00,,,-99.99,FreeWX 2.04,2013-03-16 02:17:00,
2013-03-15 20:27:00,41.0,11.1,29.91,ESE,121,2.0,5.4,29,0.00,,,-99.99,FreeWX 2.04,2013-03-16 02:27:00,
2013-03-15 20:37:00,40.3,10.6,29.91,ESE,106,2.0,6.9,29,0.00,,,-99.99,FreeWX 2.04,2013-03-16 02:37:00,
2013-03-15 20:47:00,40.5,10.8,29.91,ESE,121,2.0,6.3,29,0.00,,,-99.99,FreeWX 2.04,2013-03-16 02:47:00,
2013-03-15 20:57:00,39.2,11.1,29.91,ESE,114,2.0,5.8,31,0.00,,,-99.99,FreeWX 2.04,2013-03-16 02:57:00,
2013-03-15 21:07:00,38.7,12.0,29.91,ESE,102,1.0,4.9,33,0.00,,,-99.99,FreeWX 2.04,2013-03-16 03:07:00,
2013-03-15 21:17:00,38.7,12.0,29.91,ESE,114,2.0,7.8,33,0.00,,,-99.99,FreeWX 2.04,2013-03-16 03:17:00,
2013-03-15 21:27:00,38.8,12.2,29.91,ESE,120,3.0,6.7,33,0.00,,,-99.99,FreeWX 2.04,2013-03-16 03:27:00,
2013-03-15 21:37:00,38.5,11.8,29.91,ESE,115,2.0,6.3,33,0.00,,,-99.99,FreeWX 2.04,2013-03-16 03:37:00,
2013-03-15 21:47:00,39.4,11.3,29.91,ESE,115,4.0,8.3,31,0.00,,,-99.99,FreeWX 2.04,2013-03-16 03:47:00,
2013-03-15 21:57:00,41.9,11.1,29.88,SSE,157,4.0,10.1,28,0.00,,,-99.99,FreeWX 2.04,2013-03-16 03:57:00,
2013-03-15 22:07:00,42.1,11.3,29.88,South,181,3.0,7.4,28,0.00,,,-99.99,FreeWX 2.04,2013-03-16 04:07:00,
2013-03-15 22:17:00,42.3,11.5,29.88,SSW,204,2.0,7.4,28,0.00,,,-99.99,FreeWX 2.04,2013-03-16 04:17:00,
2013-03-15 22:27:00,42.8,12.0,29.91,SSW,199,3.0,11.2,28,0.00,,,-99.99,FreeWX 2.04,2013-03-16 04:27:00,
2013-03-15 22:37:00,41.9,11.1,29.91,SW,235,1.0,6.3,28,0.00,,,-99.99,FreeWX 2.04,2013-03-16 04:37:00,
2013-03-15 22:47:00,41.9,11.1,29.91,SW,228,2.0,7.4,28,0.00,,,-99.99,FreeWX 2.04,2013-03-16 04:47:00,
2013-03-15 22:57:00,41.0,11.1,29.91,SSW,211,1.0,5.4,29,0.00,,,-99.99,FreeWX 2.04,2013-03-16 04:57:00,
2013-03-15 23:07:00,40.6,10.9,29.91,SSW,205,2.0,6.7,29,0.00,,,-99.99,FreeWX 2.04,2013-03-16 05:07:00,
2013-03-15 23:17:00,41.0,11.1,29.91,SSW,192,2.0,7.4,29,0.00,,,-99.99,FreeWX 2.04,2013-03-16 05:17:00,
2013-03-15 23:27:00,40.8,11.1,29.91,SSW,200,1.0,5.4,29,0.00,,,-99.99,FreeWX 2.04,2013-03-16 05:27:00,
2013-03-15 23:37:00,40.3,10.6,29.88,SSW,198,2.0,9.2,29,0.00,,,-99.99,FreeWX 2.04,2013-03-16 05:37:00,
2013-03-15 23:47:00,38.7,9.9,29.88,ESE,117,4.0,8.3,30,0.00,,,-99.99,FreeWX 2.04,2013-03-16 05:47:00,
2013-03-15 23:57:00,38.7,9.9,29.88,ESE,119,4.0,6.7,30,0.00,,,-99.99,FreeWX 2.04,2013-03-16 05:57:00,